Apache Junction, Arizona
Current Conditions -  °F | °C
As of 1:47 PM on Friday 31 Oct 2014 (Local Time) from KIWA Reporting Station
Scattered Clouds Scattered Clouds  
Wind Chill: 91°   Ceiling: Unl
Heat Index: 91°   Visibility: 45mi
Dew Point: 45°   Wind: 14mph
Humidity: 20%   Direction: 150°SSE
Pressure: 29.85"   Gusts: NA
Location:  33.42°N, 111.54°W
Report Text: KIWA 312047Z 15012KT 45SM SCT200 33/07 A2985
Loading
Personal Weather Stations






























Interactive Weather Map
Tropical Storm Tracking
New forecast layout! Learn more

10-Day Weather Forecast

Advertisements
Track Severe Weather on mobile